sensor_id;sensor_type;location;lat;lon;timestamp;pressure;altitude;pressure_sealevel;temperature;humidity
36062;BME280;22123;52.412;20.970;2024-02-04T00:00:31;100045.56;;;5.17;100.00
36062;BME280;22123;52.412;20.970;2024-02-04T00:02:56;100018.00;;;4.89;100.00
36062;BME280;22123;52.412;20.970;2024-02-04T00:05:22;100032.44;;;4.96;100.00
36062;BME280;22123;52.412;20.970;2024-02-04T00:07:48;100040.84;;;5.01;100.00
36062;BME280;22123;52.412;20.970;2024-02-04T00:10:14;100056.56;;;5.04;100.00
36062;BME280;22123;52.412;20.970;2024-02-04T00:12:40;99984.56;;;4.67;100.00
36062;BME280;22123;52.412;20.970;2024-02-04T00:15:06;100013.72;;;4.78;100.00
36062;BME280;22123;52.412;20.970;2024-02-04T00:17:32;100000.06;;;4.81;100.00
36062;BME280;22123;52.412;20.970;2024-02-04T00:20:02;100012.94;;;4.96;100.00
36062;BME280;22123;52.412;20.970;2024-02-04T00:22:28;99948.00;;;4.49;100.00
36062;BME280;22123;52.412;20.970;2024-02-04T00:24:54;99994.19;;;4.78;100.00
36062;BME280;22123;52.412;20.970;2024-02-04T00:27:20;100030.47;;;4.98;100.00
36062;BME280;22123;52.412;20.970;2024-02-04T00:29:46;100018.56;;;4.93;100.00
36062;BME280;22123;52.412;20.970;2024-02-04T00:32:12;99998.84;;;4.76;100.00
36062;BME280;22123;52.412;20.970;2024-02-04T00:34:38;99990.25;;;4.72;100.00
36062;BME280;22123;52.412;20.970;2024-02-04T00:37:04;100026.94;;;4.98;100.00
36062;BME280;22123;52.412;20.970;2024-02-04T00:39:29;100034.97;;;4.98;100.00
36062;BME280;22123;52.412;20.970;2024-02-04T00:41:55;99975.59;;;4.58;100.00
36062;BME280;22123;52.412;20.970;2024-02-04T00:44:21;99976.13;;;4.62;100.00
36062;BME280;22123;52.412;20.970;2024-02-04T00:46:47;100002.31;;;4.76;100.00
36062;BME280;22123;52.412;20.970;2024-02-04T00:49:13;100020.81;;;4.87;100.00
36062;BME280;22123;52.412;20.970;2024-02-04T00:51:39;99982.63;;;4.59;100.00
36062;BME280;22123;52.412;20.970;2024-02-04T00:54:05;99959.47;;;4.50;100.00
36062;BME280;22123;52.412;20.970;2024-02-04T00:56:31;99987.91;;;4.69;100.00
36062;BME280;22123;52.412;20.970;2024-02-04T00:58:57;99982.31;;;4.62;100.00
36062;BME280;22123;52.412;20.970;2024-02-04T01:01:22;99973.09;;;4.57;100.00
36062;BME280;22123;52.412;20.970;2024-02-04T01:03:48;100001.38;;;4.67;100.00
36062;BME280;22123;52.412;20.970;2024-02-04T01:06:14;99975.59;;;4.58;100.00
36062;BME280;22123;52.412;20.970;2024-02-04T01:08:40;100013.00;;;4.76;100.00
36062;BME280;22123;52.412;20.970;2024-02-04T01:11:06;99967.19;;;4.53;100.00
36062;BME280;22123;52.412;20.970;2024-02-04T01:13:32;100016.09;;;4.81;100.00
36062;BME280;22123;52.412;20.970;2024-02-04T01:15:58;99986.66;;;4.63;100.00
36062;BME280;22123;52.412;20.970;2024-02-04T01:18:24;99976.56;;;4.57;100.00
36062;BME280;22123;52.412;20.970;2024-02-04T01:20:50;99990.03;;;4.65;100.00
36062;BME280;22123;52.412;20.970;2024-02-04T01:23:16;100029.91;;;4.95;100.00
36062;BME280;22123;52.412;20.970;2024-02-04T01:25:42;100000.94;;;4.72;100.00
36062;BME280;22123;52.412;20.970;2024-02-04T01:28:07;99965.38;;;4.53;100.00
36062;BME280;22123;52.412;20.970;2024-02-04T01:30:33;100001.38;;;4.67;100.00
36062;BME280;22123;52.412;20.970;2024-02-04T01:32:59;99998.41;;;4.70;100.00
36062;BME280;22123;52.412;20.970;2024-02-04T01:35:25;100004.31;;;4.74;100.00
36062;BME280;22123;52.412;20.970;2024-02-04T01:37:51;100022.09;;;4.83;100.00
36062;BME280;22123;52.412;20.970;2024-02-04T01:40:17;99997.44;;;4.72;100.00
36062;BME280;22123;52.412;20.970;2024-02-04T01:42:43;100037.53;;;4.90;100.00
36062;BME280;22123;52.412;20.970;2024-02-04T01:45:09;100005.28;;;4.73;100.00
36062;BME280;22123;52.412;20.970;2024-02-04T01:47:35;99986.13;;;4.60;100.00
36062;BME280;22123;52.412;20.970;2024-02-04T01:50:02;99984.69;;;4.65;100.00
36062;BME280;22123;52.412;20.970;2024-02-04T01:52:30;99992.25;;;4.70;100.00
36062;BME280;22123;52.412;20.970;2024-02-04T01:54:58;99975.56;;;4.68;100.00
36062;BME280;22123;52.412;20.970;2024-02-04T01:57:24;99961.28;;;4.59;100.00
36062;BME280;22123;52.412;20.970;2024-02-04T01:59:51;100018.16;;;4.87;100.00
36062;BME280;22123;52.412;20.970;2024-02-04T02:02:18;99967.59;;;4.58;100.00
36062;BME280;22123;52.412;20.970;2024-02-04T02:04:44;100019.84;;;4.88;100.00
36062;BME280;22123;52.412;20.970;2024-02-04T02:07:10;99979.19;;;4.77;100.00
36062;BME280;22123;52.412;20.970;2024-02-04T02:09:36;99964.19;;;4.66;100.00
36062;BME280;22123;52.412;20.970;2024-02-04T02:12:14;99977.66;;;4.74;100.00
36062;BME280;22123;52.412;20.970;2024-02-04T02:14:44;99965.44;;;4.72;100.00
36062;BME280;22123;52.412;20.970;2024-02-04T02:17:14;100002.72;;;4.91;100.00
36062;BME280;22123;52.412;20.970;2024-02-04T02:19:48;100011.09;;;4.96;100.00
36062;BME280;22123;52.412;20.970;2024-02-04T02:22:30;100017.56;;;4.94;100.00
36062;BME280;22123;52.412;20.970;2024-02-04T02:24:57;99984.53;;;4.77;100.00
36062;BME280;22123;52.412;20.970;2024-02-04T02:27:24;100001.16;;;4.88;100.00
36062;BME280;22123;52.412;20.970;2024-02-04T02:29:49;99968.25;;;4.70;100.00
36062;BME280;22123;52.412;20.970;2024-02-04T02:32:16;100013.47;;;4.99;100.00
36062;BME280;22123;52.412;20.970;2024-02-04T02:34:42;99981.72;;;4.68;100.00
36062;BME280;22123;52.412;20.970;2024-02-04T02:37:25;99987.97;;;4.87;100.00
36062;BME280;22123;52.412;20.970;2024-02-04T02:40:03;99893.75;;;4.31;100.00
36062;BME280;22123;52.412;20.970;2024-02-04T02:42:32;100010.75;;;5.09;100.00
36062;BME280;22123;52.412;20.970;2024-02-04T02:44:59;99957.00;;;4.76;100.00
36062;BME280;22123;52.412;20.970;2024-02-04T02:47:26;99978.56;;;4.93;100.00
36062;BME280;22123;52.412;20.970;2024-02-04T02:49:54;99984.41;;;4.96;100.00
36062;BME280;22123;52.412;20.970;2024-02-04T02:52:21;99986.91;;;5.08;100.00
36062;BME280;22123;52.412;20.970;2024-02-04T02:54:47;99956.44;;;4.82;100.00
36062;BME280;22123;52.412;20.970;2024-02-04T02:57:13;99959.63;;;4.86;100.00
36062;BME280;22123;52.412;20.970;2024-02-04T02:59:39;99983.59;;;4.96;100.00
36062;BME280;22123;52.412;20.970;2024-02-04T03:02:05;99946.31;;;4.76;100.00
36062;BME280;22123;52.412;20.970;2024-02-04T03:04:30;99973.91;;;4.95;100.00
36062;BME280;22123;52.412;20.970;2024-02-04T03:06:56;99979.50;;;5.01;100.00
36062;BME280;22123;52.412;20.970;2024-02-04T03:09:22;99978.25;;;4.96;100.00
36062;BME280;22123;52.412;20.970;2024-02-04T03:11:48;99999.13;;;5.10;100.00
36062;BME280;22123;52.412;20.970;2024-02-04T03:14:16;100019.06;;;5.06;100.00
36062;BME280;22123;52.412;20.970;2024-02-04T03:16:45;99971.19;;;4.77;100.00
36062;BME280;22123;52.412;20.970;2024-02-04T03:19:11;100005.38;;;4.91;100.00
36062;BME280;22123;52.412;20.970;2024-02-04T03:21:37;99963.00;;;4.50;100.00
36062;BME280;22123;52.412;20.970;2024-02-04T03:24:03;100015.56;;;4.68;100.00
36062;BME280;22123;52.412;20.970;2024-02-04T03:26:28;100005.38;;;4.44;100.00
36062;BME280;22123;52.412;20.970;2024-02-04T03:28:54;100006.56;;;4.12;100.00
36062;BME280;22123;52.412;20.970;2024-02-04T03:31:21;99984.56;;;3.80;100.00
36062;BME280;22123;52.412;20.970;2024-02-04T03:33:47;99991.72;;;3.80;100.00
36062;BME280;22123;52.412;20.970;2024-02-04T03:36:18;99975.88;;;3.69;100.00
36062;BME280;22123;52.412;20.970;2024-02-04T03:38:44;99997.28;;;3.87;100.00
36062;BME280;22123;52.412;20.970;2024-02-04T03:41:10;99978.97;;;3.74;100.00
36062;BME280;22123;52.412;20.970;2024-02-04T03:43:36;100024.91;;;4.05;100.00
36062;BME280;22123;52.412;20.970;2024-02-04T03:46:02;99984.69;;;3.79;100.00
36062;BME280;22123;52.412;20.970;2024-02-04T03:48:28;99998.72;;;4.00;100.00
36062;BME280;22123;52.412;20.970;2024-02-04T03:50:54;100019.72;;;4.13;100.00
36062;BME280;22123;52.412;20.970;2024-02-04T03:53:20;99989.44;;;4.05;100.00
36062;BME280;22123;52.412;20.970;2024-02-04T03:55:46;100003.88;;;4.22;100.00
36062;BME280;22123;52.412;20.970;2024-02-04T03:58:11;99993.91;;;4.14;100.00
36062;BME280;22123;52.412;20.970;2024-02-04T04:00:37;100051.22;;;4.47;100.00
36062;BME280;22123;52.412;20.970;2024-02-04T04:03:03;100031.75;;;4.37;100.00
36062;BME280;22123;52.412;20.970;2024-02-04T04:05:29;100011.44;;;4.26;100.00
36062;BME280;22123;52.412;20.970;2024-02-04T04:07:55;100045.50;;;4.52;100.00
36062;BME280;22123;52.412;20.970;2024-02-04T04:10:21;100025.88;;;4.43;100.00
36062;BME280;22123;52.412;20.970;2024-02-04T04:12:47;99987.19;;;4.20;100.00
36062;BME280;22123;52.412;20.970;2024-02-04T04:15:13;100045.34;;;4.53;100.00
36062;BME280;22123;52.412;20.970;2024-02-04T04:17:39;100009.03;;;4.43;100.00
36062;BME280;22123;52.412;20.970;2024-02-04T04:20:07;100017.88;;;4.43;100.00
36062;BME280;22123;52.412;20.970;2024-02-04T04:22:33;100022.34;;;4.52;100.00
36062;BME280;22123;52.412;20.970;2024-02-04T04:24:59;100013.81;;;4.39;100.00
36062;BME280;22123;52.412;20.970;2024-02-04T04:27:25;100040.41;;;4.59;100.00
36062;BME280;22123;52.412;20.970;2024-02-04T04:29:50;100006.66;;;4.40;100.00
36062;BME280;22123;52.412;20.970;2024-02-04T04:32:16;100057.53;;;4.66;100.00
36062;BME280;22123;52.412;20.970;2024-02-04T04:34:42;100032.31;;;4.50;100.00
36062;BME280;22123;52.412;20.970;2024-02-04T04:37:08;100069.59;;;4.70;100.00
36062;BME280;22123;52.412;20.970;2024-02-04T04:39:34;100052.09;;;4.58;100.00
36062;BME280;22123;52.412;20.970;2024-02-04T04:42:00;100071.13;;;4.73;100.00
36062;BME280;22123;52.412;20.970;2024-02-04T04:44:26;100076.63;;;4.61;100.00
36062;BME280;22123;52.412;20.970;2024-02-04T04:46:52;100039.78;;;4.27;100.00
36062;BME280;22123;52.412;20.970;2024-02-04T04:49:17;100068.66;;;4.22;100.00
36062;BME280;22123;52.412;20.970;2024-02-04T04:51:46;100058.28;;;3.90;100.00
36062;BME280;22123;52.412;20.970;2024-02-04T04:54:12;100034.44;;;3.78;100.00
36062;BME280;22123;52.412;20.970;2024-02-04T04:56:39;100032.59;;;3.50;100.00
36062;BME280;22123;52.412;20.970;2024-02-04T04:59:06;100036.63;;;3.44;100.00
36062;BME280;22123;52.412;20.970;2024-02-04T05:01:32;100089.91;;;3.63;100.00
36062;BME280;22123;52.412;20.970;2024-02-04T05:03:58;100086.22;;;3.55;100.00
36062;BME280;22123;52.412;20.970;2024-02-04T05:06:24;100022.97;;;3.18;100.00
36062;BME280;22123;52.412;20.970;2024-02-04T05:08:50;100049.50;;;3.29;100.00
36062;BME280;22123;52.412;20.970;2024-02-04T05:11:16;100018.03;;;3.03;100.00
36062;BME280;22123;52.412;20.970;2024-02-04T05:13:42;100073.44;;;3.29;100.00
36062;BME280;22123;52.412;20.970;2024-02-04T05:16:07;100064.31;;;3.22;100.00
36062;BME280;22123;52.412;20.970;2024-02-04T05:18:33;100078.16;;;3.25;100.00
36062;BME280;22123;52.412;20.970;2024-02-04T05:21:01;100086.16;;;3.25;100.00
36062;BME280;22123;52.412;20.970;2024-02-04T05:23:27;100056.97;;;3.04;100.00
36062;BME280;22123;52.412;20.970;2024-02-04T05:25:53;100085.72;;;3.20;100.00
36062;BME280;22123;52.412;20.970;2024-02-04T05:28:19;100086.56;;;3.21;100.00
36062;BME280;22123;52.412;20.970;2024-02-04T05:30:45;100040.81;;;2.96;100.00
36062;BME280;22123;52.412;20.970;2024-02-04T05:33:14;100037.28;;;2.86;100.00
36062;BME280;22123;52.412;20.970;2024-02-04T05:35:41;100097.47;;;3.18;100.00
36062;BME280;22123;52.412;20.970;2024-02-04T05:38:07;100075.44;;;3.06;100.00
36062;BME280;22123;52.412;20.970;2024-02-04T05:40:33;100062.41;;;3.03;100.00
36062;BME280;22123;52.412;20.970;2024-02-04T05:42:59;100046.00;;;2.98;100.00
36062;BME280;22123;52.412;20.970;2024-02-04T05:45:25;100047.69;;;2.99;100.00
36062;BME280;22123;52.412;20.970;2024-02-04T05:47:50;100034.03;;;2.82;100.00
36062;BME280;22123;52.412;20.970;2024-02-04T05:50:16;100024.38;;;2.81;100.00
36062;BME280;22123;52.412;20.970;2024-02-04T05:52:42;100046.84;;;2.98;100.00
36062;BME280;22123;52.412;20.970;2024-02-04T05:55:10;100064.59;;;3.19;100.00
36062;BME280;22123;52.412;20.970;2024-02-04T05:57:35;100006.94;;;2.88;100.00
36062;BME280;22123;52.412;20.970;2024-02-04T06:00:02;100008.72;;;2.88;100.00
36062;BME280;22123;52.412;20.970;2024-02-04T06:02:27;100006.25;;;2.96;100.00
36062;BME280;22123;52.412;20.970;2024-02-04T06:04:53;100036.16;;;3.19;100.00
36062;BME280;22123;52.412;20.970;2024-02-04T06:07:19;100044.00;;;3.21;100.00
36062;BME280;22123;52.412;20.970;2024-02-04T06:09:45;100000.25;;;3.04;100.00
36062;BME280;22123;52.412;20.970;2024-02-04T06:12:11;99976.28;;;2.94;100.00
36062;BME280;22123;52.412;20.970;2024-02-04T06:14:37;99994.38;;;3.00;100.00
36062;BME280;22123;52.412;20.970;2024-02-04T06:17:03;100051.00;;;3.31;100.00
36062;BME280;22123;52.412;20.970;2024-02-04T06:19:29;100002.13;;;3.13;100.00
36062;BME280;22123;52.412;20.970;2024-02-04T06:21:54;100017.66;;;3.18;100.00
36062;BME280;22123;52.412;20.970;2024-02-04T06:24:20;100007.31;;;3.15;100.00
36062;BME280;22123;52.412;20.970;2024-02-04T06:26:46;100011.47;;;3.17;100.00
36062;BME280;22123;52.412;20.970;2024-02-04T06:29:12;99980.06;;;3.01;100.00
36062;BME280;22123;52.412;20.970;2024-02-04T06:31:38;100056.09;;;3.44;100.00
36062;BME280;22123;52.412;20.970;2024-02-04T06:34:04;100061.69;;;3.41;100.00
36062;BME280;22123;52.412;20.970;2024-02-04T06:36:30;100037.84;;;3.30;100.00
36062;BME280;22123;52.412;20.970;2024-02-04T06:38:55;100013.75;;;3.22;100.00
36062;BME280;22123;52.412;20.970;2024-02-04T06:41:21;100019.94;;;3.32;100.00
36062;BME280;22123;52.412;20.970;2024-02-04T06:43:47;100010.66;;;3.17;100.00
36062;BME280;22123;52.412;20.970;2024-02-04T06:46:13;99996.06;;;3.11;100.00
36062;BME280;22123;52.412;20.970;2024-02-04T06:48:39;100016.44;;;3.31;100.00
36062;BME280;22123;52.412;20.970;2024-02-04T06:51:05;100017.97;;;3.34;100.00
36062;BME280;22123;52.412;20.970;2024-02-04T06:53:31;100023.59;;;3.41;100.00
36062;BME280;22123;52.412;20.970;2024-02-04T06:55:57;100072.28;;;3.72;100.00
36062;BME280;22123;52.412;20.970;2024-02-04T06:58:23;100074.66;;;3.75;100.00
36062;BME280;22123;52.412;20.970;2024-02-04T07:00:49;100055.56;;;3.60;100.00
36062;BME280;22123;52.412;20.970;2024-02-04T07:03:14;100058.13;;;3.72;100.00
36062;BME280;22123;52.412;20.970;2024-02-04T07:05:40;100052.22;;;3.78;100.00
36062;BME280;22123;52.412;20.970;2024-02-04T07:08:06;100049.44;;;3.70;100.00
36062;BME280;22123;52.412;20.970;2024-02-04T07:10:32;100028.97;;;3.70;100.00
36062;BME280;22123;52.412;20.970;2024-02-04T07:12:58;100060.09;;;3.99;100.00
36062;BME280;22123;52.412;20.970;2024-02-04T07:15:24;100028.72;;;3.93;100.00
36062;BME280;22123;52.412;20.970;2024-02-04T07:17:50;100028.00;;;4.00;100.00
36062;BME280;22123;52.412;20.970;2024-02-04T07:20:15;100042.16;;;4.11;100.00
36062;BME280;22123;52.412;20.970;2024-02-04T07:22:41;100037.38;;;4.24;100.00
36062;BME280;22123;52.412;20.970;2024-02-04T07:25:08;100026.56;;;4.26;100.00
36062;BME280;22123;52.412;20.970;2024-02-04T07:27:34;100036.25;;;4.27;100.00
36062;BME280;22123;52.412;20.970;2024-02-04T07:30:00;100052.38;;;4.35;100.00
36062;BME280;22123;52.412;20.970;2024-02-04T07:32:25;100020.56;;;4.24;100.00
36062;BME280;22123;52.412;20.970;2024-02-04T07:34:51;100021.53;;;4.32;100.00
36062;BME280;22123;52.412;20.970;2024-02-04T07:37:17;100050.41;;;4.37;100.00
36062;BME280;22123;52.412;20.970;2024-02-04T07:39:43;100057.84;;;4.43;100.00
36062;BME280;22123;52.412;20.970;2024-02-04T07:42:09;100022.50;;;4.41;100.00
36062;BME280;22123;52.412;20.970;2024-02-04T07:44:35;100054.16;;;4.64;100.00
36062;BME280;22123;52.412;20.970;2024-02-04T07:47:01;100076.84;;;4.78;100.00
36062;BME280;22123;52.412;20.970;2024-02-04T07:49:27;100068.72;;;4.79;100.00
36062;BME280;22123;52.412;20.970;2024-02-04T07:51:52;100038.75;;;4.58;100.00
36062;BME280;22123;52.412;20.970;2024-02-04T07:54:18;100035.81;;;4.51;100.00
36062;BME280;22123;52.412;20.970;2024-02-04T07:56:44;99997.84;;;4.29;100.00
36062;BME280;22123;52.412;20.970;2024-02-04T07:59:10;100034.41;;;4.57;100.00
36062;BME280;22123;52.412;20.970;2024-02-04T08:01:36;100021.91;;;4.47;100.00
36062;BME280;22123;52.412;20.970;2024-02-04T08:04:02;100041.97;;;4.51;100.00
36062;BME280;22123;52.412;20.970;2024-02-04T08:06:28;100032.16;;;4.52;100.00
36062;BME280;22123;52.412;20.970;2024-02-04T08:08:54;100037.88;;;4.57;100.00
36062;BME280;22123;52.412;20.970;2024-02-04T08:11:20;100061.16;;;4.75;100.00
36062;BME280;22123;52.412;20.970;2024-02-04T08:13:46;100021.75;;;4.49;100.00
36062;BME280;22123;52.412;20.970;2024-02-04T08:16:12;100037.75;;;4.59;100.00
36062;BME280;22123;52.412;20.970;2024-02-04T08:18:38;100009.03;;;4.43;100.00
36062;BME280;22123;52.412;20.970;2024-02-04T08:21:04;100065.91;;;4.81;100.00
36062;BME280;22123;52.412;20.970;2024-02-04T08:23:30;100027.50;;;4.64;100.00
36062;BME280;22123;52.412;20.970;2024-02-04T08:25:56;100060.72;;;4.79;100.00
36062;BME280;22123;52.412;20.970;2024-02-04T08:28:22;100044.59;;;4.71;100.00
36062;BME280;22123;52.412;20.970;2024-02-04T08:30:47;100062.97;;;4.84;100.00
36062;BME280;22123;52.412;20.970;2024-02-04T08:33:13;100028.78;;;4.60;100.00
36062;BME280;22123;52.412;20.970;2024-02-04T08:35:39;100032.56;;;4.57;100.00
36062;BME280;22123;52.412;20.970;2024-02-04T08:38:05;100000.88;;;4.44;100.00
36062;BME280;22123;52.412;20.970;2024-02-04T08:40:31;100027.38;;;4.56;100.00
36062;BME280;22123;52.412;20.970;2024-02-04T08:42:57;100038.72;;;4.67;100.00
36062;BME280;22123;52.412;20.970;2024-02-04T08:45:23;100036.34;;;4.55;100.00
36062;BME280;22123;52.412;20.970;2024-02-04T08:47:48;100018.56;;;4.45;100.00
36062;BME280;22123;52.412;20.970;2024-02-04T08:50:14;100036.91;;;4.58;100.00
36062;BME280;22123;52.412;20.970;2024-02-04T08:52:40;100067.75;;;4.70;100.00
36062;BME280;22123;52.412;20.970;2024-02-04T08:55:06;100037.34;;;4.53;100.00
36062;BME280;22123;52.412;20.970;2024-02-04T08:57:32;100049.66;;;4.64;100.00
36062;BME280;22123;52.412;20.970;2024-02-04T08:59:58;100049.28;;;4.59;100.00
36062;BME280;22123;52.412;20.970;2024-02-04T09:02:24;100053.22;;;4.45;100.00
36062;BME280;22123;52.412;20.970;2024-02-04T09:04:50;100044.50;;;4.53;100.00
36062;BME280;22123;52.412;20.970;2024-02-04T09:07:16;100054.47;;;4.51;100.00
36062;BME280;22123;52.412;20.970;2024-02-04T09:09:42;100096.63;;;4.85;100.00
36062;BME280;22123;52.412;20.970;2024-02-04T09:12:09;100059.75;;;4.70;100.00
36062;BME280;22123;52.412;20.970;2024-02-04T09:14:35;100044.78;;;4.60;100.00
36062;BME280;22123;52.412;20.970;2024-02-04T09:17:05;100068.59;;;4.71;100.00
36062;BME280;22123;52.412;20.970;2024-02-04T09:19:31;100064.94;;;4.72;100.00
36062;BME280;22123;52.412;20.970;2024-02-04T09:21:57;100037.59;;;4.60;100.00
36062;BME280;22123;52.412;20.970;2024-02-04T09:24:23;100070.41;;;4.70;100.00
36062;BME280;22123;52.412;20.970;2024-02-04T09:26:48;100086.53;;;4.88;100.00
36062;BME280;22123;52.412;20.970;2024-02-04T09:29:14;100036.78;;;4.50;100.00
36062;BME280;22123;52.412;20.970;2024-02-04T09:31:40;100091.00;;;4.88;100.00
36062;BME280;22123;52.412;20.970;2024-02-04T09:34:06;100057.81;;;4.63;100.00
36062;BME280;22123;52.412;20.970;2024-02-04T09:36:32;100036.34;;;4.64;100.00
36062;BME280;22123;52.412;20.970;2024-02-04T09:38:58;100025.66;;;4.64;100.00
36062;BME280;22123;52.412;20.970;2024-02-04T09:41:25;100071.63;;;4.96;100.00
36062;BME280;22123;52.412;20.970;2024-02-04T09:43:51;100000.19;;;4.52;100.00
36062;BME280;22123;52.412;20.970;2024-02-04T09:46:18;100010.38;;;4.66;100.00
36062;BME280;22123;52.412;20.970;2024-02-04T09:48:44;100065.31;;;4.97;100.00
36062;BME280;22123;52.412;20.970;2024-02-04T09:51:10;100049.72;;;4.92;100.00
36062;BME280;22123;52.412;20.970;2024-02-04T09:53:43;100027.34;;;4.75;100.00
36062;BME280;22123;52.412;20.970;2024-02-04T09:56:09;100030.97;;;4.74;100.00
36062;BME280;22123;52.412;20.970;2024-02-04T09:58:36;100051.53;;;5.01;100.00
36062;BME280;22123;52.412;20.970;2024-02-04T10:01:04;100010.78;;;4.72;100.00
36062;BME280;22123;52.412;20.970;2024-02-04T10:03:30;100047.84;;;5.02;100.00
36062;BME280;22123;52.412;20.970;2024-02-04T10:05:56;100027.66;;;5.00;100.00
36062;BME280;22123;52.412;20.970;2024-02-04T10:08:22;100044.91;;;5.05;100.00
36062;BME280;22123;52.412;20.970;2024-02-04T10:10:48;100027.00;;;4.88;100.00
36062;BME280;22123;52.412;20.970;2024-02-04T10:13:14;99978.25;;;4.68;100.00
36062;BME280;22123;52.412;20.970;2024-02-04T10:15:40;100012.13;;;4.85;100.00
36062;BME280;22123;52.412;20.970;2024-02-04T10:18:07;100036.34;;;5.02;100.00
36062;BME280;22123;52.412;20.970;2024-02-04T10:20:33;99997.41;;;4.81;100.00
36062;BME280;22123;52.412;20.970;2024-02-04T10:22:59;99973.28;;;4.73;100.00
36062;BME280;22123;52.412;20.970;2024-02-04T10:25:26;100004.81;;;4.87;100.00
36062;BME280;22123;52.412;20.970;2024-02-04T10:27:53;100014.56;;;5.07;100.00
36062;BME280;22123;52.412;20.970;2024-02-04T10:30:20;99975.31;;;4.89;100.00
36062;BME280;22123;52.412;20.970;2024-02-04T10:32:46;99966.88;;;4.94;100.00
36062;BME280;22123;52.412;20.970;2024-02-04T10:35:12;100018.88;;;5.17;100.00
36062;BME280;22123;52.412;20.970;2024-02-04T10:37:37;99955.94;;;4.97;100.00
36062;BME280;22123;52.412;20.970;2024-02-04T10:40:04;99967.25;;;5.09;100.00
36062;BME280;22123;52.412;20.970;2024-02-04T10:42:30;99974.19;;;5.19;100.00
36062;BME280;22123;52.412;20.970;2024-02-04T10:44:58;99964.91;;;5.23;100.00
36062;BME280;22123;52.412;20.970;2024-02-04T10:47:26;99939.53;;;4.92;100.00
36062;BME280;22123;52.412;20.970;2024-02-04T10:49:58;99908.66;;;4.89;100.00
36062;BME280;22123;52.412;20.970;2024-02-04T10:52:26;99951.59;;;5.14;100.00
36062;BME280;22123;52.412;20.970;2024-02-04T10:54:53;99932.44;;;5.00;100.00
36062;BME280;22123;52.412;20.970;2024-02-04T10:57:22;99909.34;;;4.91;100.00
36062;BME280;22123;52.412;20.970;2024-02-04T10:59:48;99889.00;;;4.90;100.00
36062;BME280;22123;52.412;20.970;2024-02-04T11:02:17;99934.63;;;5.15;100.00
36062;BME280;22123;52.412;20.970;2024-02-04T11:04:43;99950.63;;;5.33;100.00
36062;BME280;22123;52.412;20.970;2024-02-04T11:07:13;99949.13;;;5.30;100.00
36062;BME280;22123;52.412;20.970;2024-02-04T11:09:41;99943.94;;;5.29;100.00
36062;BME280;22123;52.412;20.970;2024-02-04T11:12:09;99950.41;;;5.26;100.00
36062;BME280;22123;52.412;20.970;2024-02-04T11:14:39;99876.63;;;4.89;100.00
36062;BME280;22123;52.412;20.970;2024-02-04T11:23:45;99876.31;;;4.74;100.00
36062;BME280;22123;52.412;20.970;2024-02-04T11:26:15;99943.91;;;5.11;100.00
36062;BME280;22123;52.412;20.970;2024-02-04T11:28:42;99892.25;;;4.84;100.00
36062;BME280;22123;52.412;20.970;2024-02-04T11:31:17;99868.31;;;4.74;100.00
36062;BME280;22123;52.412;20.970;2024-02-04T11:33:44;99922.72;;;5.09;100.00
36062;BME280;22123;52.412;20.970;2024-02-04T11:36:14;99892.34;;;4.92;100.00
36062;BME280;22123;52.412;20.970;2024-02-04T11:38:40;99892.34;;;4.92;100.00
36062;BME280;22123;52.412;20.970;2024-02-04T11:41:07;99920.88;;;5.10;100.00
36062;BME280;22123;52.412;20.970;2024-02-04T11:43:34;99918.91;;;5.12;100.00
36062;BME280;22123;52.412;20.970;2024-02-04T11:46:00;99883.81;;;4.88;100.00
36062;BME280;22123;52.412;20.970;2024-02-04T11:48:29;99854.41;;;4.70;100.00
36062;BME280;22123;52.412;20.970;2024-02-04T11:50:57;99910.34;;;5.08;100.00
36062;BME280;22123;52.412;20.970;2024-02-04T11:53:23;99869.63;;;4.88;100.00
36062;BME280;22123;52.412;20.970;2024-02-04T11:55:52;99849.81;;;4.91;100.00
36062;BME280;22123;52.412;20.970;2024-02-04T11:58:18;99853.25;;;5.01;100.00
36062;BME280;22123;52.412;20.970;2024-02-04T12:00:45;99850.06;;;4.97;100.00
36062;BME280;22123;52.412;20.970;2024-02-04T12:03:11;99847.28;;;4.89;100.00
36062;BME280;22123;52.412;20.970;2024-02-04T12:05:38;99891.09;;;5.14;100.00
36062;BME280;22123;52.412;20.970;2024-02-04T12:08:04;99873.41;;;5.13;100.00
36062;BME280;22123;52.412;20.970;2024-02-04T12:10:32;99863.03;;;5.10;100.00
36062;BME280;22123;52.412;20.970;2024-02-04T12:12:59;99823.59;;;4.86;100.00
36062;BME280;22123;52.412;20.970;2024-02-04T12:15:28;99868.06;;;5.13;100.00
36062;BME280;22123;52.412;20.970;2024-02-04T12:17:54;99792.66;;;4.75;100.00
36062;BME280;22123;52.412;20.970;2024-02-04T12:20:20;99844.25;;;5.02;100.00
36062;BME280;22123;52.412;20.970;2024-02-04T12:22:46;99803.53;;;4.82;100.00
36062;BME280;22123;52.412;20.970;2024-02-04T12:25:12;99762.00;;;4.61;100.00
36062;BME280;22123;52.412;20.970;2024-02-04T12:27:37;99795.75;;;4.70;100.00
36062;BME280;22123;52.412;20.970;2024-02-04T12:30:04;99840.91;;;5.00;100.00
36062;BME280;22123;52.412;20.970;2024-02-04T12:32:31;99799.13;;;4.73;100.00
36062;BME280;22123;52.412;20.970;2024-02-04T12:34:56;99811.78;;;4.88;100.00
36062;BME280;22123;52.412;20.970;2024-02-04T12:37:22;99815.59;;;4.86;100.00
36062;BME280;22123;52.412;20.970;2024-02-04T12:39:48;99786.00;;;4.79;100.00
36062;BME280;22123;52.412;20.970;2024-02-04T12:42:15;99785.19;;;4.79;100.00
36062;BME280;22123;52.412;20.970;2024-02-04T12:44:41;99777.94;;;4.71;100.00